createdAt,value
2019-05-26T00:00:57.946Z,92.64
2019-05-26T00:01:57.934Z,92.79
2019-05-26T00:02:57.903Z,92.27
2019-05-26T00:03:57.876Z,93.40
2019-05-26T00:04:57.865Z,93.80
2019-05-26T00:05:57.901Z,93.60
2019-05-26T00:06:57.886Z,92.94
2019-05-26T00:07:57.856Z,92.99
2019-05-26T00:08:57.831Z,92.84
2019-05-26T00:09:57.818Z,92.99
2019-05-26T00:10:57.801Z,92.03
2019-05-26T00:11:57.868Z,91.83
2019-05-26T00:12:57.780Z,91.62
2019-05-26T00:13:57.810Z,91.27
2019-05-26T00:14:57.791Z,90.86
2019-05-26T00:15:57.783Z,91.07
2019-05-26T00:16:57.755Z,90.70
2019-05-26T00:17:57.722Z,90.81
2019-05-26T00:18:57.724Z,91.38
2019-05-26T00:19:57.731Z,90.66
2019-05-26T00:20:57.721Z,91.22
2019-05-26T00:21:57.689Z,91.42
2019-05-26T00:22:57.677Z,91.52
2019-05-26T00:23:57.677Z,91.42
2019-05-26T00:24:57.662Z,91.83
2019-05-26T00:25:57.644Z,91.72
2019-05-26T00:26:57.659Z,91.56
2019-05-26T00:27:57.634Z,91.97
2019-05-26T00:28:57.600Z,91.72
2019-05-26T00:29:57.614Z,91.97
2019-05-26T00:30:57.591Z,91.77
2019-05-26T00:31:57.608Z,91.46
2019-05-26T00:32:57.575Z,92.18
2019-05-26T00:33:57.561Z,91.77
2019-05-26T00:34:57.556Z,92.18
2019-05-26T00:35:57.554Z,91.77
2019-05-26T00:36:57.539Z,91.66
2019-05-26T00:37:57.505Z,91.66
2019-05-26T00:38:57.501Z,91.66
2019-05-26T00:39:57.482Z,91.16
2019-05-26T00:40:57.479Z,91.77
2019-05-26T00:41:57.490Z,91.26
2019-05-26T00:42:57.473Z,92.07
2019-05-26T00:43:57.486Z,92.07
2019-05-26T00:44:57.431Z,91.87
2019-05-26T00:45:57.447Z,91.91
2019-05-26T00:46:57.454Z,91.97
2019-05-26T00:47:57.404Z,92.93
2019-05-26T00:48:57.398Z,92.11
2019-05-26T00:49:57.393Z,93.03
2019-05-26T00:50:57.386Z,93.03
2019-05-26T00:51:57.385Z,92.52
2019-05-26T00:52:57.350Z,92.63
2019-05-26T00:53:57.339Z,92.52
2019-05-26T00:54:57.358Z,92.83
2019-05-26T00:55:57.320Z,92.11
2019-05-26T00:56:57.310Z,92.42
2019-05-26T00:57:57.310Z,92.63
2019-05-26T00:58:57.302Z,92.97
2019-05-26T00:59:57.302Z,92.83
2019-05-26T01:00:57.277Z,93.13
2019-05-26T01:01:57.292Z,92.83
2019-05-26T01:02:57.274Z,93.13
2019-05-26T01:03:57.259Z,92.42
2019-05-26T01:04:57.237Z,92.46
2019-05-26T01:05:57.220Z,92.52
2019-05-26T01:06:57.191Z,92.72
2019-05-26T01:08:06.097Z,92.97
2019-05-26T01:08:58.184Z,92.87
2019-05-26T01:09:57.183Z,92.42
2019-05-26T01:11:00.971Z,92.87
2019-05-26T01:11:57.167Z,93.07
2019-05-26T01:12:57.159Z,92.67
2019-05-26T01:13:57.116Z,93.18
2019-05-26T01:14:57.123Z,93.48
2019-05-26T01:15:57.108Z,92.87
2019-05-26T01:16:57.133Z,93.28
2019-05-26T01:17:57.113Z,92.97
2019-05-26T01:18:57.077Z,93.38
2019-05-26T01:19:57.072Z,92.77
2019-05-26T01:20:57.045Z,93.07
2019-05-26T01:21:57.042Z,93.18
2019-05-26T01:22:57.048Z,93.28
2019-05-26T01:23:57.015Z,93.18
2019-05-26T01:24:57.026Z,92.97
2019-05-26T01:25:57.025Z,92.83
2019-05-26T01:26:56.997Z,93.18
2019-05-26T01:27:56.995Z,93.18
2019-05-26T01:28:56.970Z,93.07
2019-05-26T01:29:56.949Z,92.97
2019-05-26T01:30:56.946Z,92.87
2019-05-26T01:31:56.929Z,93.18
2019-05-26T01:32:56.961Z,92.97
2019-05-26T01:33:56.904Z,92.57
2019-05-26T01:34:56.926Z,92.52
2019-05-26T01:35:56.901Z,92.42
2019-05-26T01:36:56.913Z,92.01
2019-05-26T01:37:56.891Z,91.30
2019-05-26T01:38:56.880Z,92.36
2019-05-26T01:39:56.904Z,91.96
2019-05-26T01:40:56.828Z,91.96
2019-05-26T01:41:56.837Z,91.96
2019-05-26T01:42:56.821Z,92.26
2019-05-26T01:43:56.823Z,92.16
2019-05-26T01:44:56.794Z,91.85
2019-05-26T01:45:56.825Z,92.26
2019-05-26T01:46:56.848Z,92.67
2019-05-26T01:47:56.758Z,91.75
2019-05-26T01:48:56.747Z,92.41
2019-05-26T01:49:56.732Z,92.16
2019-05-26T01:50:56.728Z,92.67
2019-05-26T01:51:56.716Z,92.71
2019-05-26T01:52:56.756Z,92.46
2019-05-26T01:53:56.715Z,92.71
2019-05-26T01:54:56.706Z,91.65
2019-05-26T01:55:56.680Z,92.10
2019-05-26T01:56:56.691Z,92.20
2019-05-26T01:57:56.655Z,92.10
2019-05-26T01:58:56.633Z,92.20
2019-05-26T01:59:56.648Z,92.41
2019-05-26T02:00:56.638Z,92.71
2019-05-26T02:01:58.779Z,92.00
2019-05-26T02:02:56.608Z,92.91
2019-05-26T02:03:56.601Z,92.50
2019-05-26T02:04:56.572Z,93.06
2019-05-26T02:05:56.584Z,92.96
2019-05-26T02:06:56.545Z,92.76
2019-05-26T02:07:56.553Z,93.06
2019-05-26T02:08:56.531Z,92.96
2019-05-26T02:09:56.511Z,93.06
2019-05-26T02:10:56.512Z,93.26
2019-05-26T02:11:56.514Z,92.76
2019-05-26T02:12:56.490Z,93.06
2019-05-26T02:13:56.517Z,92.86
2019-05-26T02:14:57.786Z,93.06
2019-05-26T02:15:56.745Z,92.76
2019-05-26T02:16:57.346Z,92.76
2019-05-26T02:17:57.632Z,92.65
2019-05-26T02:18:56.422Z,92.76
2019-05-26T02:19:56.577Z,92.96
2019-05-26T02:20:57.443Z,92.24
2019-05-26T02:21:56.397Z,92.86
2019-05-26T02:22:57.301Z,92.86
2019-05-26T02:23:56.365Z,92.65
2019-05-26T02:24:57.285Z,93.16
2019-05-26T02:25:56.555Z,93.10
2019-05-26T02:26:56.350Z,93.51
2019-05-26T02:27:56.540Z,93.31
2019-05-26T02:28:56.507Z,93.51
2019-05-26T02:29:56.399Z,93.31
2019-05-26T02:30:56.294Z,93.00
2019-05-26T02:31:56.423Z,92.80
2019-05-26T02:32:56.282Z,92.86
2019-05-26T02:33:56.539Z,92.55
2019-05-26T02:34:56.307Z,92.76
2019-05-26T02:35:56.235Z,91.83
2019-05-26T02:36:56.225Z,92.24
2019-05-26T02:37:56.210Z,91.83
2019-05-26T02:39:02.683Z,92.24
2019-05-26T02:39:57.183Z,91.74
2019-05-26T02:40:56.177Z,91.53
2019-05-26T02:41:56.181Z,92.14
2019-05-26T02:42:56.152Z,92.14
2019-05-26T02:43:56.148Z,91.83
2019-05-26T02:44:59.336Z,91.53
2019-05-26T02:45:56.117Z,91.63
2019-05-26T02:46:56.109Z,92.45
2019-05-26T02:47:56.131Z,91.98
2019-05-26T02:48:56.129Z,91.88
2019-05-26T02:49:56.075Z,91.43
2019-05-26T02:50:56.064Z,91.78
2019-05-26T02:51:56.080Z,91.53
2019-05-26T02:52:56.081Z,91.98
2019-05-26T02:53:56.045Z,91.78
2019-05-26T02:54:56.022Z,91.88
2019-05-26T02:55:56.010Z,91.88
2019-05-26T02:56:56.008Z,92.33
2019-05-26T02:57:55.992Z,91.88
2019-05-26T02:58:56.021Z,92.74
2019-05-26T02:59:55.970Z,93.00
2019-05-26T03:00:55.967Z,93.00
2019-05-26T03:02:03.639Z,92.49
2019-05-26T03:02:56.930Z,92.80
2019-05-26T03:03:55.921Z,93.55
2019-05-26T03:04:55.961Z,92.74
2019-05-26T03:05:55.966Z,92.29
2019-05-26T03:06:55.904Z,92.02
2019-05-26T03:07:55.888Z,92.39
2019-05-26T03:08:55.876Z,91.88
2019-05-26T03:09:55.885Z,91.82
2019-05-26T03:10:55.851Z,91.98
2019-05-26T03:11:55.837Z,91.57
2019-05-26T03:12:55.824Z,92.29
2019-05-26T03:13:55.831Z,91.98
2019-05-26T03:14:55.846Z,91.88
2019-05-26T03:15:55.801Z,92.23
2019-05-26T03:16:55.799Z,91.78
2019-05-26T03:17:55.771Z,92.23
2019-05-26T03:18:55.831Z,92.08
2019-05-26T03:19:55.787Z,92.13
2019-05-26T03:20:55.780Z,92.64
2019-05-26T03:21:55.750Z,91.72
2019-05-26T03:22:55.740Z,92.64
2019-05-26T03:23:55.727Z,92.13
2019-05-26T03:24:55.706Z,92.43
2019-05-26T03:25:55.719Z,92.02
2019-05-26T03:26:55.673Z,92.13
2019-05-26T03:27:55.664Z,93.25
2019-05-26T03:28:55.647Z,92.23
2019-05-26T03:29:56.198Z,93.45
2019-05-26T03:30:56.271Z,93.05
2019-05-26T03:31:56.477Z,93.25
2019-05-26T03:32:55.624Z,93.15
2019-05-26T03:33:55.784Z,93.29
2019-05-26T03:34:55.719Z,93.09
2019-05-26T03:35:55.799Z,92.99
2019-05-26T03:36:55.785Z,93.70
2019-05-26T03:37:55.632Z,93.29
2019-05-26T03:38:55.750Z,93.44
2019-05-26T03:39:55.605Z,93.40
2019-05-26T03:40:55.579Z,93.19
2019-05-26T03:41:55.573Z,93.19
2019-05-26T03:42:55.709Z,92.94
2019-05-26T03:43:55.536Z,92.84
2019-05-26T03:44:55.539Z,92.17
2019-05-26T03:45:55.568Z,92.74
2019-05-26T03:46:55.506Z,92.33
2019-05-26T03:48:02.479Z,91.82
2019-05-26T03:48:55.434Z,91.52
2019-05-26T03:49:55.419Z,91.72
2019-05-26T03:50:55.418Z,91.82
2019-05-26T03:51:55.399Z,91.96
2019-05-26T03:52:55.411Z,92.58
2019-05-26T03:53:55.377Z,92.47
2019-05-26T03:54:55.367Z,92.27
2019-05-26T03:55:55.364Z,92.07
2019-05-26T03:56:55.373Z,92.17
2019-05-26T03:57:55.346Z,92.27
2019-05-26T03:58:55.318Z,91.86
2019-05-26T03:59:55.313Z,91.82
2019-05-26T04:00:55.321Z,91.72
2019-05-26T04:01:57.656Z,91.61
2019-05-26T04:02:55.279Z,91.41
2019-05-26T04:03:55.272Z,91.92
2019-05-26T04:04:55.269Z,91.72
2019-05-26T04:05:55.256Z,91.61
2019-05-26T04:06:55.238Z,91.61
2019-05-26T04:07:55.224Z,91.00
2019-05-26T04:08:55.214Z,91.41
2019-05-26T04:10:04.530Z,91.31
2019-05-26T04:10:56.236Z,91.61
2019-05-26T04:11:55.182Z,91.52
2019-05-26T04:12:55.169Z,91.52
2019-05-26T04:13:55.159Z,91.61
2019-05-26T04:14:55.224Z,91.31
2019-05-26T04:15:55.151Z,91.72
2019-05-26T04:16:56.428Z,91.41
2019-05-26T04:17:55.113Z,91.52
2019-05-26T04:18:55.106Z,91.72
2019-05-26T04:19:55.092Z,91.11
2019-05-26T04:20:55.090Z,91.82
2019-05-26T04:21:55.089Z,91.72
2019-05-26T04:22:55.099Z,91.00
2019-05-26T04:23:55.051Z,91.11
2019-05-26T04:24:55.035Z,91.06
2019-05-26T04:25:55.059Z,90.96
2019-05-26T04:26:55.019Z,90.66
2019-05-26T04:27:55.009Z,90.96
2019-05-26T04:28:54.997Z,89.94
2019-05-26T04:29:54.984Z,90.80
2019-05-26T04:30:54.983Z,90.96
2019-05-26T04:31:54.990Z,91.57
2019-05-26T04:32:54.954Z,90.25
2019-05-26T04:33:54.940Z,90.86
2019-05-26T04:34:54.941Z,91.27
2019-05-26T04:35:54.960Z,91.16
2019-05-26T04:36:54.908Z,91.37
2019-05-26T04:37:54.912Z,91.06
2019-05-26T04:38:54.888Z,91.47
2019-05-26T04:39:54.876Z,90.55
2019-05-26T04:40:54.884Z,90.86
2019-05-26T04:41:54.857Z,91.47
2019-05-26T04:42:54.954Z,91.37
2019-05-26T04:43:54.830Z,90.96
2019-05-26T04:44:54.827Z,91.06
2019-05-26T04:45:54.834Z,91.22
2019-05-26T04:46:54.807Z,90.20
2019-05-26T04:47:54.786Z,90.20
2019-05-26T04:48:54.798Z,90.10
2019-05-26T04:49:54.769Z,89.96
2019-05-26T04:50:54.755Z,90.16
2019-05-26T04:51:54.757Z,89.86
2019-05-26T04:53:06.277Z,89.45
2019-05-26T04:53:55.729Z,89.04
2019-05-26T04:54:54.710Z,89.45
2019-05-26T04:55:54.700Z,89.40
2019-05-26T04:56:54.735Z,89.92
2019-05-26T04:57:54.682Z,89.71
2019-05-26T04:58:54.667Z,89.87
2019-05-26T04:59:54.656Z,89.87
2019-05-26T05:00:54.646Z,87.08
2019-05-26T05:01:54.643Z,86.19
2019-05-26T05:02:54.640Z,84.52
2019-05-26T05:03:54.612Z,84.31
2019-05-26T05:04:54.600Z,84.99
2019-05-26T05:05:54.591Z,83.73
2019-05-26T05:06:54.593Z,82.26
2019-05-26T05:07:54.574Z,82.33
2019-05-26T05:08:54.558Z,80.80
2019-05-26T05:09:54.566Z,81.96
2019-05-26T05:10:54.536Z,80.68
2019-05-26T05:11:54.535Z,81.19
2019-05-26T05:12:54.515Z,81.59
2019-05-26T05:13:54.506Z,82.14
2019-05-26T05:14:54.492Z,83.87
2019-05-26T05:15:54.482Z,82.75
2019-05-26T05:16:54.480Z,81.66
2019-05-26T05:17:54.462Z,80.16
2019-05-26T05:18:54.452Z,79.00
2019-05-26T05:19:54.504Z,80.06
2019-05-26T05:20:54.428Z,79.59
2019-05-26T05:21:54.432Z,80.74
2019-05-26T05:22:54.407Z,81.15
2019-05-26T05:23:54.394Z,82.37
2019-05-26T05:24:54.385Z,82.26
2019-05-26T05:25:54.375Z,81.45
2019-05-26T05:26:54.372Z,81.96
2019-05-26T05:27:54.380Z,81.96
2019-05-26T05:28:54.340Z,81.76
2019-05-26T05:29:54.329Z,82.47
2019-05-26T05:30:54.322Z,82.37
2019-05-26T05:31:54.322Z,80.60
2019-05-26T05:32:54.297Z,80.87
2019-05-26T05:33:54.315Z,80.66
2019-05-26T05:34:54.283Z,79.92
2019-05-26T05:35:54.266Z,81.04
2019-05-26T05:36:54.267Z,81.99
2019-05-26T05:37:54.243Z,81.48
2019-05-26T05:38:54.231Z,80.53
2019-05-26T05:39:54.220Z,80.62
2019-05-26T05:40:59.366Z,76.39
2019-05-26T05:41:55.232Z,76.02
2019-05-26T05:42:54.188Z,76.35
2019-05-26T05:43:54.176Z,74.02
2019-05-26T05:44:54.167Z,72.31
2019-05-26T05:45:54.158Z,71.63
2019-05-26T05:46:54.163Z,68.91
2019-05-26T05:47:54.131Z,69.32
2019-05-26T05:48:54.120Z,68.48
2019-05-26T05:49:54.114Z,69.09
2019-05-26T05:50:54.099Z,69.56
2019-05-26T05:51:54.119Z,68.35
2019-05-26T05:52:54.111Z,67.31
2019-05-26T05:53:54.067Z,67.51
2019-05-26T05:54:54.057Z,68.52
2019-05-26T05:55:54.046Z,68.05
2019-05-26T05:56:55.756Z,68.25
2019-05-26T05:57:54.037Z,69.82
2019-05-26T05:58:54.013Z,67.74
2019-05-26T05:59:54.000Z,68.45
2019-05-26T06:00:53.998Z,68.45
2019-05-26T06:01:53.979Z,68.32
2019-05-26T06:02:53.980Z,66.11
2019-05-26T06:03:53.956Z,67.21
2019-05-26T06:04:53.946Z,68.88
2019-05-26T06:05:53.932Z,65.37
2019-05-26T06:06:53.923Z,66.52
2019-05-26T06:07:53.928Z,67.52
2019-05-26T06:08:53.920Z,65.81
2019-05-26T06:09:53.890Z,65.58
2019-05-26T06:10:53.878Z,65.35
2019-05-26T06:11:56.848Z,64.62
2019-05-26T06:12:53.867Z,63.51
2019-05-26T06:13:53.847Z,65.45
2019-05-26T06:14:53.863Z,64.81
2019-05-26T06:15:53.824Z,64.01
2019-05-26T06:16:53.815Z,63.45
2019-05-26T06:17:53.814Z,62.99
2019-05-26T06:18:53.795Z,61.96
2019-05-26T06:19:53.783Z,61.66
2019-05-26T06:20:53.772Z,61.07
2019-05-26T06:21:53.772Z,60.99
2019-05-26T06:22:53.763Z,61.36
2019-05-26T06:23:53.738Z,59.66
2019-05-26T06:24:53.729Z,59.51
2019-05-26T06:25:53.715Z,60.17
2019-05-26T06:26:53.703Z,60.41
2019-05-26T06:27:53.731Z,60.14
2019-05-26T06:28:53.682Z,61.33
2019-05-26T06:29:59.011Z,60.74
2019-05-26T06:30:54.660Z,60.71
2019-05-26T06:31:53.741Z,60.71
2019-05-26T06:32:53.652Z,61.30
2019-05-26T06:33:53.662Z,60.91
2019-05-26T06:34:53.615Z,60.68
2019-05-26T06:35:53.607Z,63.20
2019-05-26T06:36:53.597Z,59.81
2019-05-26T06:37:53.596Z,61.60
2019-05-26T06:38:53.575Z,61.10
2019-05-26T06:39:53.573Z,61.21
2019-05-26T06:40:53.554Z,58.51
2019-05-26T06:41:53.551Z,59.58
2019-05-26T06:42:53.569Z,60.68
2019-05-26T06:43:53.520Z,58.48
2019-05-26T06:44:54.234Z,59.75
2019-05-26T06:45:53.498Z,59.75
2019-05-26T06:46:53.485Z,59.72
2019-05-26T06:47:53.477Z,57.90
2019-05-26T06:48:53.491Z,58.76
2019-05-26T06:49:53.469Z,58.27
2019-05-26T06:50:53.441Z,55.88
2019-05-26T06:51:53.430Z,57.00
2019-05-26T06:52:53.418Z,57.45
2019-05-26T06:53:53.419Z,58.71
2019-05-26T06:54:53.399Z,57.22
2019-05-26T06:55:53.400Z,54.01
2019-05-26T06:56:53.378Z,58.18
2019-05-26T06:57:53.366Z,56.20
2019-05-26T06:58:53.365Z,55.30
2019-05-26T06:59:53.345Z,56.23
2019-05-26T07:00:53.354Z,55.63
2019-05-26T07:01:53.324Z,55.03
2019-05-26T07:02:53.325Z,56.48
2019-05-26T07:03:53.317Z,58.57
2019-05-26T07:04:53.295Z,57.03
2019-05-26T07:05:53.284Z,58.33
2019-05-26T07:06:53.272Z,57.06
2019-05-26T07:07:53.260Z,55.83
2019-05-26T07:08:53.289Z,58.59
2019-05-26T07:09:53.308Z,57.77
2019-05-26T07:10:53.227Z,57.52
2019-05-26T07:11:59.678Z,55.23
2019-05-26T07:12:54.204Z,55.10
2019-05-26T07:13:53.205Z,56.49
2019-05-26T07:14:53.199Z,56.77
2019-05-26T07:15:53.173Z,55.97
2019-05-26T07:16:53.162Z,53.76
2019-05-26T07:17:53.150Z,54.93
2019-05-26T07:18:53.150Z,53.98
2019-05-26T07:19:53.129Z,52.89
2019-05-26T07:20:53.117Z,51.00
2019-05-26T07:21:53.129Z,51.84
2019-05-26T07:22:53.095Z,51.37
2019-05-26T07:23:53.093Z,53.66
2019-05-26T07:24:53.075Z,55.02
2019-05-26T07:25:53.064Z,50.78
2019-05-26T07:26:53.052Z,53.04
2019-05-26T07:27:53.053Z,52.56
2019-05-26T07:28:53.045Z,51.37
2019-05-26T07:29:53.018Z,54.06
2019-05-26T07:30:53.007Z,51.20
2019-05-26T07:31:52.996Z,55.05
2019-05-26T07:32:52.985Z,53.93
2019-05-26T07:33:52.994Z,55.97
2019-05-26T07:34:52.965Z,55.77
2019-05-26T07:35:52.954Z,54.25
2019-05-26T07:36:52.942Z,54.68
2019-05-26T07:37:52.931Z,54.90
2019-05-26T07:38:52.929Z,53.66
2019-05-26T07:39:52.913Z,59.89
2019-05-26T07:40:52.916Z,54.00
2019-05-26T07:42:08.777Z,50.73
2019-05-26T07:42:53.879Z,54.23
2019-05-26T07:43:52.876Z,54.18
2019-05-26T07:44:52.854Z,56.61
2019-05-26T07:45:52.843Z,53.51
2019-05-26T07:46:52.834Z,54.55
2019-05-26T07:47:52.823Z,52.26
2019-05-26T07:48:52.824Z,50.65
2019-05-26T07:49:52.801Z,51.75
2019-05-26T07:50:52.793Z,54.47
2019-05-26T07:51:52.786Z,52.00
2019-05-26T07:52:52.768Z,54.01
2019-05-26T07:53:56.018Z,53.86
2019-05-26T07:54:52.750Z,52.34
2019-05-26T07:55:52.741Z,53.61
2019-05-26T07:56:52.725Z,55.89
2019-05-26T07:57:52.720Z,52.66
2019-05-26T07:58:52.735Z,53.20
2019-05-26T07:59:52.692Z,56.55
2019-05-26T08:00:52.685Z,49.74
2019-05-26T08:01:52.672Z,51.20
2019-05-26T08:02:52.667Z,50.73
2019-05-26T08:03:52.659Z,51.07
2019-05-26T08:04:52.642Z,50.53
2019-05-26T08:05:52.628Z,53.38
2019-05-26T08:06:52.620Z,52.26
2019-05-26T08:07:52.606Z,52.34
2019-05-26T08:08:52.634Z,53.50
2019-05-26T08:09:52.599Z,50.63
2019-05-26T08:10:52.573Z,50.53
2019-05-26T08:11:52.563Z,51.40
2019-05-26T08:12:52.557Z,53.58
2019-05-26T08:13:52.542Z,51.37
2019-05-26T08:14:52.565Z,55.73
2019-05-26T08:15:52.530Z,51.47
2019-05-26T08:16:52.509Z,50.58
2019-05-26T08:17:52.508Z,50.26
2019-05-26T08:18:52.487Z,54.29
2019-05-26T08:19:52.493Z,48.38
2019-05-26T08:20:52.485Z,50.16
2019-05-26T08:21:54.507Z,47.78
2019-05-26T08:22:52.445Z,51.57
2019-05-26T08:23:52.432Z,50.85
2019-05-26T08:24:52.434Z,51.62
2019-05-26T08:25:52.814Z,50.53
2019-05-26T08:26:52.403Z,52.36
2019-05-26T08:27:52.392Z,50.29
2019-05-26T08:28:52.403Z,50.38
2019-05-26T08:29:52.377Z,49.87
2019-05-26T08:30:52.359Z,53.53
2019-05-26T08:31:52.354Z,45.59
2019-05-26T08:32:52.337Z,47.96
2019-05-26T08:33:52.331Z,46.39
2019-05-26T08:34:52.329Z,50.28
2019-05-26T08:35:52.309Z,52.22
2019-05-26T08:36:52.296Z,53.63
2019-05-26T08:37:52.286Z,49.96
2019-05-26T08:38:52.271Z,49.88
2019-05-26T08:39:52.281Z,49.57
2019-05-26T08:40:52.249Z,49.52
2019-05-26T08:41:52.238Z,49.96
2019-05-26T08:42:52.260Z,46.28
2019-05-26T08:43:52.218Z,50.12
2019-05-26T08:44:52.220Z,50.21
2019-05-26T08:45:52.200Z,50.21
2019-05-26T08:46:52.186Z,49.30
2019-05-26T08:47:52.195Z,48.93
2019-05-26T08:48:52.167Z,53.94
2019-05-26T08:49:52.167Z,48.71
2019-05-26T08:50:52.141Z,51.07
2019-05-26T08:51:52.131Z,48.07
2019-05-26T08:52:52.126Z,48.07
2019-05-26T08:53:52.125Z,44.54
2019-05-26T08:54:52.118Z,48.51
2019-05-26T08:55:52.104Z,45.27
2019-05-26T08:56:52.082Z,49.15
2019-05-26T08:57:52.084Z,49.62
2019-05-26T08:58:52.084Z,47.32
2019-05-26T08:59:52.061Z,51.05
2019-05-26T09:00:52.091Z,48.75
2019-05-26T09:01:52.029Z,48.07
2019-05-26T09:02:52.025Z,47.85
2019-05-26T09:03:52.021Z,48.44
2019-05-26T09:04:52.039Z,47.13
2019-05-26T09:05:51.988Z,44.89
2019-05-26T09:06:51.982Z,45.01
2019-05-26T09:07:51.964Z,44.42
2019-05-26T09:08:51.966Z,46.41
2019-05-26T09:09:51.954Z,45.23
2019-05-26T09:10:51.935Z,45.54
2019-05-26T09:11:51.931Z,46.63
2019-05-26T09:13:00.908Z,50.12
2019-05-26T09:13:52.901Z,47.69
2019-05-26T09:14:51.972Z,46.70
2019-05-26T09:15:51.879Z,46.01
2019-05-26T09:16:51.865Z,51.35
2019-05-26T09:17:51.860Z,46.51
2019-05-26T09:18:51.856Z,48.03
2019-05-26T09:19:51.866Z,46.75
2019-05-26T09:20:51.828Z,48.58
2019-05-26T09:21:51.819Z,48.49
2019-05-26T09:22:51.805Z,45.05
2019-05-26T09:23:51.798Z,48.36
2019-05-26T09:24:51.842Z,51.13
2019-05-26T09:25:51.787Z,49.27
2019-05-26T09:26:51.770Z,49.00
2019-05-26T09:27:51.752Z,47.12
2019-05-26T09:28:51.741Z,46.11
2019-05-26T09:29:51.733Z,44.67
2019-05-26T09:30:51.736Z,48.72
2019-05-26T09:31:51.715Z,46.64
2019-05-26T09:32:51.700Z,47.31
2019-05-26T09:33:51.695Z,49.64
2019-05-26T09:34:51.695Z,49.89
2019-05-26T09:35:51.687Z,47.00
2019-05-26T09:36:51.661Z,49.82
2019-05-26T09:37:51.650Z,49.69
2019-05-26T09:38:51.651Z,46.47
2019-05-26T09:39:51.634Z,50.56
2019-05-26T09:40:51.630Z,43.35
2019-05-26T09:41:51.612Z,48.44
2019-05-26T09:42:51.602Z,47.65
2019-05-26T09:43:51.589Z,46.12
2019-05-26T09:44:51.591Z,44.81
2019-05-26T09:45:51.580Z,44.54
2019-05-26T09:46:51.572Z,46.00
2019-05-26T09:47:51.546Z,46.48
2019-05-26T09:48:51.535Z,53.27
2019-05-26T09:49:51.530Z,50.09
2019-05-26T09:50:51.531Z,45.18
2019-05-26T09:51:51.519Z,42.48
2019-05-26T09:52:51.505Z,45.45
2019-05-26T09:54:01.193Z,46.59
2019-05-26T09:54:52.474Z,48.12
2019-05-26T09:55:51.478Z,46.84
2019-05-26T09:56:51.460Z,41.46
2019-05-26T09:57:51.482Z,41.67
2019-05-26T09:58:51.442Z,44.71
2019-05-26T09:59:51.435Z,45.01
2019-05-26T10:00:51.440Z,45.30
2019-05-26T10:01:51.405Z,44.22
2019-05-26T10:02:51.397Z,49.35
2019-05-26T10:03:51.385Z,44.91
2019-05-26T10:04:51.376Z,48.41
2019-05-26T10:05:51.447Z,45.75
2019-05-26T10:06:51.353Z,46.94
2019-05-26T10:07:51.347Z,49.79
2019-05-26T10:08:51.486Z,44.07
2019-05-26T10:09:51.340Z,41.30
2019-05-26T10:10:51.324Z,44.78
2019-05-26T10:11:51.301Z,45.49
2019-05-26T10:12:51.294Z,49.96
2019-05-26T10:13:51.282Z,44.64
2019-05-26T10:14:51.281Z,45.23
2019-05-26T10:15:51.283Z,45.41
2019-05-26T10:16:51.253Z,51.05
2019-05-26T10:17:51.245Z,44.60
2019-05-26T10:18:51.233Z,45.64
2019-05-26T10:19:51.224Z,45.76
2019-05-26T10:20:51.222Z,44.58
2019-05-26T10:21:51.247Z,46.66
2019-05-26T10:22:51.196Z,41.30
2019-05-26T10:23:53.144Z,41.67
2019-05-26T10:24:51.172Z,43.73
2019-05-26T10:25:51.199Z,45.67
2019-05-26T10:26:51.156Z,43.90
2019-05-26T10:27:51.144Z,49.60
2019-05-26T10:28:51.137Z,49.57
2019-05-26T10:29:51.135Z,47.90
2019-05-26T10:30:51.124Z,51.05
2019-05-26T10:31:51.106Z,44.67
2019-05-26T10:32:51.096Z,45.01
2019-05-26T10:33:51.092Z,47.20
2019-05-26T10:34:51.076Z,47.00
2019-05-26T10:35:51.107Z,46.59
2019-05-26T10:36:51.055Z,41.28
2019-05-26T10:37:51.046Z,44.54
2019-05-26T10:38:51.035Z,45.20
2019-05-26T10:39:51.027Z,44.22
2019-05-26T10:40:51.017Z,44.67
2019-05-26T10:41:51.247Z,46.89
2019-05-26T10:42:51.005Z,41.47
2019-05-26T10:43:50.989Z,46.00
2019-05-26T10:44:50.977Z,43.91
2019-05-26T10:45:50.969Z,44.03
2019-05-26T10:46:50.972Z,45.36
2019-05-26T10:47:50.949Z,40.29
2019-05-26T10:48:50.943Z,45.00
2019-05-26T10:49:50.937Z,51.20
2019-05-26T10:50:50.925Z,45.47
2019-05-26T10:51:50.921Z,48.41
2019-05-26T10:52:50.901Z,50.16
2019-05-26T10:53:50.893Z,46.56
2019-05-26T10:54:50.886Z,49.30
2019-05-26T10:55:50.875Z,51.94
2019-05-26T10:56:50.882Z,46.08
2019-05-26T10:57:50.856Z,44.31
2019-05-26T10:58:50.856Z,41.67
2019-05-26T10:59:50.850Z,43.76
2019-05-26T11:00:50.826Z,41.78
2019-05-26T11:01:50.828Z,43.03
2019-05-26T11:02:50.808Z,42.68
2019-05-26T11:03:50.799Z,45.23
2019-05-26T11:04:50.797Z,43.31
2019-05-26T11:05:50.779Z,42.24
2019-05-26T11:06:50.786Z,44.78
2019-05-26T11:07:50.765Z,49.52
2019-05-26T11:08:50.767Z,45.62
2019-05-26T11:09:50.747Z,49.67
2019-05-26T11:10:50.734Z,48.11
2019-05-26T11:11:50.749Z,49.77
2019-05-26T11:12:50.716Z,45.60
2019-05-26T11:14:02.410Z,46.26
2019-05-26T11:14:51.699Z,46.56
2019-05-26T11:15:50.686Z,45.78
2019-05-26T11:16:51.187Z,44.87
2019-05-26T11:17:50.682Z,45.28
2019-05-26T11:18:50.677Z,45.85
2019-05-26T11:19:50.647Z,46.39
2019-05-26T11:20:50.641Z,47.57
2019-05-26T11:21:50.646Z,46.44
2019-05-26T11:22:50.624Z,42.32
2019-05-26T11:23:50.619Z,47.25
2019-05-26T11:24:50.651Z,45.26
2019-05-26T11:25:50.595Z,48.71
2019-05-26T11:26:50.609Z,40.82
2019-05-26T11:27:50.583Z,41.75
2019-05-26T11:28:50.593Z,42.07
2019-05-26T11:29:50.565Z,45.15
2019-05-26T11:30:50.548Z,44.65
2019-05-26T11:31:50.556Z,41.95
2019-05-26T11:32:50.535Z,46.58
2019-05-26T11:33:50.519Z,44.70
2019-05-26T11:35:01.116Z,48.90
2019-05-26T11:35:51.502Z,45.97
2019-05-26T11:36:50.515Z,46.91
2019-05-26T11:37:50.489Z,42.65
2019-05-26T11:38:50.474Z,45.19
2019-05-26T11:39:50.479Z,46.06
2019-05-26T11:40:50.489Z,45.76
2019-05-26T11:41:54.911Z,38.99
2019-05-26T11:42:50.457Z,42.08
2019-05-26T11:43:50.432Z,40.21
2019-05-26T11:44:50.424Z,44.65
2019-05-26T11:45:50.410Z,42.50
2019-05-26T11:46:50.401Z,45.20
2019-05-26T11:47:50.403Z,44.59
2019-05-26T11:48:50.390Z,40.53
2019-05-26T11:49:50.374Z,42.36
2019-05-26T11:50:50.364Z,39.52
2019-05-26T11:51:50.356Z,38.82
2019-05-26T11:52:50.360Z,44.82
2019-05-26T11:53:50.338Z,45.17
2019-05-26T11:54:50.329Z,42.84
2019-05-26T11:55:50.318Z,47.09
2019-05-26T11:56:50.308Z,47.05
2019-05-26T11:57:50.311Z,46.31
2019-05-26T11:58:50.290Z,44.39
2019-05-26T11:59:50.282Z,41.61
2019-05-26T12:00:50.270Z,40.80
2019-05-26T12:01:50.262Z,47.88
2019-05-26T12:02:50.263Z,39.81
2019-05-26T12:03:50.248Z,46.89
2019-05-26T12:04:50.234Z,45.57
2019-05-26T12:05:50.225Z,49.57
2019-05-26T12:06:50.215Z,46.44
2019-05-26T12:07:50.217Z,42.54
2019-05-26T12:08:50.196Z,43.62
2019-05-26T12:09:50.197Z,42.05
2019-05-26T12:10:50.182Z,45.18
2019-05-26T12:11:50.169Z,41.02
2019-05-26T12:12:50.173Z,44.25
2019-05-26T12:13:50.149Z,44.74
2019-05-26T12:14:50.139Z,42.40
2019-05-26T12:15:50.134Z,44.79
2019-05-26T12:16:50.122Z,47.60
2019-05-26T12:17:50.122Z,46.30
2019-05-26T12:18:50.117Z,44.88
2019-05-26T12:19:50.098Z,47.02
2019-05-26T12:20:50.089Z,38.78
2019-05-26T12:21:50.075Z,38.60
2019-05-26T12:22:50.084Z,48.00
2019-05-26T12:23:54.132Z,40.58
2019-05-26T12:24:50.065Z,40.03
2019-05-26T12:25:50.044Z,40.13
2019-05-26T12:26:50.032Z,42.74
2019-05-26T12:27:50.044Z,42.08
2019-05-26T12:28:50.011Z,44.38
2019-05-26T12:29:50.009Z,47.62
2019-05-26T12:30:49.995Z,42.34
2019-05-26T12:31:49.984Z,49.52
2019-05-26T12:32:49.987Z,43.25
2019-05-26T12:33:49.962Z,40.21
2019-05-26T12:34:49.954Z,44.93
2019-05-26T12:35:49.946Z,42.99
2019-05-26T12:36:49.939Z,45.52
2019-05-26T12:37:49.940Z,42.72
2019-05-26T12:38:49.921Z,42.07
2019-05-26T12:39:49.930Z,42.32
2019-05-26T12:40:49.927Z,43.50
2019-05-26T12:41:49.927Z,41.06
2019-05-26T12:42:49.926Z,41.04
2019-05-26T12:43:49.871Z,48.80
2019-05-26T12:44:50.249Z,47.66
2019-05-26T12:45:49.851Z,50.06
2019-05-26T12:46:49.847Z,46.37
2019-05-26T12:47:49.844Z,49.00
2019-05-26T12:48:49.826Z,42.60
2019-05-26T12:49:49.815Z,48.21
2019-05-26T12:50:49.802Z,43.15
2019-05-26T12:51:49.808Z,43.59
2019-05-26T12:52:49.796Z,44.26